Time;durP1;ratioP1;P1;durP2;ratioP2;P2;SDS_P1;SDS_P2;PMS_P1;PMS_P2;Temp;Humidity;BMP_temperature;BMP_pressure;BME280_temperature;BME280_humidity;BME280_pressure;Samples;Min_cycle;Max_cycle;Signal;HPM_P1;HPM_P2
2023/05/15 00:00:55;;;;;;;3.20;2.72;;;;;;;13.41;63.82;96880.31;4900228;28;20202;-77
2023/05/15 00:03:20;;;;;;;3.72;2.90;;;;;;;13.56;63.87;96895.91;4886662;28;20442;-77
2023/05/15 00:05:46;;;;;;;6.88;4.50;;;;;;;13.56;63.87;96895.91;4911110;28;20167;-77
2023/05/15 00:08:11;;;;;;;4.22;3.83;;;;;;;13.61;63.17;96900.34;4891688;28;20655;-78
2023/05/15 00:10:36;;;;;;;5.13;3.67;;;;;;;13.55;63.97;96886.50;4906193;28;20328;-77
2023/05/15 00:13:02;;;;;;;3.40;3.08;;;;;;;13.53;63.30;96883.38;4921588;28;20279;-77
2023/05/15 00:15:27;;;;;;;3.17;2.88;;;;;;;13.58;63.14;96888.56;4922644;28;20423;-77
2023/05/15 00:17:53;;;;;;;4.25;2.80;;;;;;;13.57;63.42;96887.03;4892927;28;20277;-78
2023/05/15 00:20:18;;;;;;;3.08;2.80;;;;;;;13.56;63.41;96882.06;4905875;28;20288;-78
2023/05/15 00:22:44;;;;;;;3.10;2.80;;;;;;;13.57;64.45;96881.81;4893730;28;20103;-78
2023/05/15 00:25:09;;;;;;;3.15;2.80;;;;;;;13.61;64.25;96885.44;4888801;28;20575;-76
2023/05/15 00:27:59;;;;;;;2.55;2.35;;;;;;;13.65;64.28;96880.44;4922075;28;20353;-77
2023/05/15 00:30:29;;;;;;;3.85;2.83;;;;;;;13.53;65.12;96877.38;4882814;28;20234;-77
2023/05/15 00:32:54;;;;;;;3.08;2.78;;;;;;;13.64;64.66;96874.44;4909083;28;20193;-77
2023/05/15 00:35:20;;;;;;;3.78;3.10;;;;;;;13.59;64.88;96884.13;4907220;28;20575;-77
2023/05/15 00:37:46;;;;;;;2.90;2.70;;;;;;;13.65;64.14;96873.34;4905032;28;20174;-77
2023/05/15 00:40:17;;;;;;;2.85;2.65;;;;;;;13.87;63.69;96882.66;4908534;28;20391;-79
2023/05/15 00:42:43;;;;;;;3.08;2.65;;;;;;;13.79;63.40;96875.38;4873262;28;20254;-78
2023/05/15 00:45:09;;;;;;;3.03;2.42;;;;;;;13.78;63.64;96877.22;4922945;28;20241;-77
2023/05/15 00:47:35;;;;;;;4.05;3.08;;;;;;;13.77;63.64;96880.09;4890589;28;20182;-79
2023/05/15 00:50:01;;;;;;;4.55;3.17;;;;;;;13.71;63.85;96883.78;4924811;28;20402;-77
2023/05/15 00:52:27;;;;;;;3.72;3.17;;;;;;;13.66;64.15;96876.78;4889693;28;20164;-77
2023/05/15 00:54:52;;;;;;;4.78;2.90;;;;;;;13.72;64.40;96874.91;4918981;28;20277;-77
2023/05/15 00:57:19;;;;;;;3.40;2.80;;;;;;;13.73;63.39;96871.25;4909386;28;20305;-77
2023/05/15 00:59:44;;;;;;;4.53;2.58;;;;;;;13.62;64.28;96875.75;4919871;28;20318;-77
2023/05/15 01:02:11;;;;;;;4.65;3.05;;;;;;;13.67;64.40;96868.66;4949838;23;20293;-81
2023/05/15 01:04:36;;;;;;;2.45;2.25;;;;;;;13.70;64.17;96866.56;4896006;28;20183;-82
2023/05/15 01:07:01;;;;;;;2.78;2.45;;;;;;;13.66;64.01;96867.09;4911702;28;20635;-80
2023/05/15 01:09:29;;;;;;;2.20;2.00;;;;;;;13.74;63.96;96872.78;4890381;28;20273;-80
2023/05/15 01:11:56;;;;;;;3.35;2.92;;;;;;;13.78;63.94;96874.59;4907784;28;20603;-80
2023/05/15 01:14:21;;;;;;;2.60;2.40;;;;;;;13.66;64.00;96872.31;4903143;28;20203;-81
2023/05/15 01:16:47;;;;;;;2.95;2.40;;;;;;;13.67;63.58;96873.91;4913273;28;20334;-80
2023/05/15 01:19:12;;;;;;;2.60;2.40;;;;;;;13.64;63.36;96860.53;4886919;28;20279;-81
2023/05/15 01:21:56;;;;;;;4.63;2.83;;;;;;;13.76;63.74;96866.25;4884010;28;20624;-80
2023/05/15 01:24:54;;;;;;;2.90;2.70;;;;;;;13.80;63.83;96875.09;4893362;28;20218;-80
2023/05/15 01:27:38;;;;;;;3.28;2.53;;;;;;;13.76;64.26;96875.91;4908843;28;20201;-81
2023/05/15 01:30:19;;;;;;;2.70;2.25;;;;;;;13.70;63.69;96871.78;4923244;28;20491;-81
2023/05/15 01:32:57;;;;;;;3.47;2.85;;;;;;;13.75;63.62;96874.38;4934245;28;20162;-81
2023/05/15 01:35:30;;;;;;;3.63;2.40;;;;;;;13.67;63.68;96866.03;4922634;28;20259;-81
2023/05/15 01:38:12;;;;;;;3.45;3.00;;;;;;;13.68;63.23;96870.22;4920394;28;20280;-80
2023/05/15 01:40:38;;;;;;;4.43;3.33;;;;;;;13.59;63.60;96860.56;4888507;28;20197;-80
2023/05/15 01:43:07;;;;;;;3.15;2.88;;;;;;;13.71;63.36;96855.00;4921845;28;20212;-81
2023/05/15 01:45:34;;;;;;;4.93;2.90;;;;;;;13.67;63.59;96866.03;4901571;28;20627;-80
2023/05/15 01:48:00;;;;;;;3.20;2.85;;;;;;;13.60;63.57;96854.31;4920984;28;20648;-81
2023/05/15 01:50:26;;;;;;;3.42;3.10;;;;;;;13.57;63.89;96854.84;4906954;28;20182;-81
2023/05/15 01:52:57;;;;;;;3.25;2.83;;;;;;;13.64;63.76;96853.50;4923783;28;20328;-81
2023/05/15 01:55:24;;;;;;;3.30;3.00;;;;;;;13.66;63.95;96858.47;4914099;28;20175;-82
2023/05/15 01:57:50;;;;;;;3.88;2.50;;;;;;;13.79;63.30;96860.44;4888216;28;20203;-81
2023/05/15 02:00:16;;;;;;;3.08;2.58;;;;;;;13.91;62.68;96860.09;4918427;28;20163;-82
2023/05/15 02:02:42;;;;;;;3.35;2.50;;;;;;;13.90;62.61;96858.56;4919945;28;20255;-81
2023/05/15 02:05:08;;;;;;;2.85;2.65;;;;;;;13.83;62.96;96853.63;4906090;28;20189;-80
2023/05/15 02:07:34;;;;;;;5.57;3.03;;;;;;;13.79;62.68;96859.66;4889314;28;20283;-80
2023/05/15 02:10:00;;;;;;;2.60;2.40;;;;;;;13.75;62.44;96854.19;4892626;28;20750;-81
2023/05/15 02:12:27;;;;;;;3.28;2.60;;;;;;;13.57;63.40;96849.59;4867340;28;20168;-81
2023/05/15 02:14:53;;;;;;;2.33;2.13;;;;;;;13.57;63.35;96852.22;4906892;28;20617;-80
2023/05/15 02:17:21;;;;;;;3.00;2.60;;;;;;;13.49;63.55;96866.66;4928253;28;20242;-81
2023/05/15 02:19:47;;;;;;;3.33;2.83;;;;;;;13.44;63.78;96858.84;4899338;28;20250;-81
2023/05/15 02:22:12;;;;;;;2.88;2.30;;;;;;;13.40;64.17;96863.84;4907979;28;20222;-81
2023/05/15 02:24:38;;;;;;;2.20;2.00;;;;;;;13.39;63.74;96861.50;4908583;28;20615;-81
2023/05/15 02:27:08;;;;;;;2.70;2.50;;;;;;;13.42;63.83;96866.19;4898993;28;20387;-80
2023/05/15 02:29:41;;;;;;;3.20;2.90;;;;;;;13.33;63.82;96852.09;4909739;28;20340;-81
2023/05/15 02:32:16;;;;;;;6.75;4.38;;;;;;;13.30;63.54;96858.63;4912610;28;20257;-81
2023/05/15 02:34:52;;;;;;;5.78;3.60;;;;;;;13.29;63.77;96852.59;4927922;28;20209;-81
2023/05/15 02:37:20;;;;;;;4.90;4.40;;;;;;;13.21;64.15;96855.81;4908363;28;20115;-80
2023/05/15 02:39:48;;;;;;;5.35;4.25;;;;;;;13.14;64.18;96847.44;4868184;28;20712;-81
2023/05/15 02:42:14;;;;;;;5.03;3.50;;;;;;;13.14;64.21;96860.50;4894525;28;20281;-80
2023/05/15 02:44:41;;;;;;;5.10;3.58;;;;;;;13.19;63.99;96846.66;4912756;28;20191;-82
2023/05/15 02:47:07;;;;;;;4.22;3.22;;;;;;;13.15;63.69;96854.25;4890311;28;20205;-82
2023/05/15 02:49:32;;;;;;;4.57;3.13;;;;;;;13.12;63.73;96857.41;4913398;28;20197;-81
2023/05/15 02:51:58;;;;;;;5.40;3.50;;;;;;;13.14;63.65;96852.69;4875536;28;20269;-81
2023/05/15 02:54:24;;;;;;;4.25;3.08;;;;;;;13.06;64.05;96853.25;4908252;28;20284;-81
2023/05/15 02:56:50;;;;;;;4.13;2.97;;;;;;;12.98;63.85;96845.97;4892462;28;20169;-81
2023/05/15 02:59:18;;;;;;;3.70;3.15;;;;;;;12.95;64.43;96851.72;4907097;28;20650;-81
2023/05/15 03:01:45;;;;;;;5.28;4.32;;;;;;;12.96;64.27;96854.06;4893264;28;20196;-81
2023/05/15 03:04:12;;;;;;;7.05;4.80;;;;;;;12.87;64.06;96845.22;4908920;28;20195;-81
2023/05/15 03:06:38;;;;;;;6.00;4.35;;;;;;;12.91;64.70;96851.47;4894590;28;20607;-81
2023/05/15 03:09:03;;;;;;;5.43;4.38;;;;;;;12.93;64.73;96851.97;4893942;28;20284;-81
2023/05/15 03:11:28;;;;;;;4.15;3.30;;;;;;;12.92;64.87;96853.81;4903260;28;20640;-81
2023/05/15 03:13:54;;;;;;;4.43;3.28;;;;;;;13.00;64.43;96857.69;4907402;28;20175;-81
2023/05/15 03:16:19;;;;;;;4.35;3.63;;;;;;;13.13;64.36;96843.28;4890630;28;20123;-81
2023/05/15 03:18:45;;;;;;;4.57;3.55;;;;;;;13.27;63.58;96839.03;4896090;28;20692;-82
2023/05/15 03:21:10;;;;;;;3.22;2.92;;;;;;;13.33;63.49;96836.41;4934015;28;20193;-82
2023/05/15 03:23:36;;;;;;;4.70;3.00;;;;;;;13.38;63.04;96842.38;4888448;28;20160;-82
2023/05/15 03:26:01;;;;;;;3.00;2.70;;;;;;;13.43;62.69;96846.81;4919103;28;20199;-82
2023/05/15 03:28:27;;;;;;;2.88;2.30;;;;;;;13.25;62.76;96846.38;4900463;28;20241;-82
2023/05/15 03:30:52;;;;;;;2.70;2.45;;;;;;;13.32;62.79;96845.31;4933906;28;20296;-82
2023/05/15 03:33:18;;;;;;;3.25;2.30;;;;;;;13.35;62.07;96848.19;4903693;28;20252;-82
2023/05/15 03:35:43;;;;;;;3.35;2.30;;;;;;;13.35;62.29;96850.00;4888352;28;20171;-82
2023/05/15 03:38:08;;;;;;;2.70;2.10;;;;;;;13.24;62.64;96850.00;4919962;28;20302;-82
2023/05/15 03:40:34;;;;;;;2.60;2.38;;;;;;;13.10;62.70;96849.03;4887934;28;20191;-82
2023/05/15 03:42:59;;;;;;;5.30;2.50;;;;;;;12.99;63.68;96857.97;4889857;28;20259;-82
2023/05/15 03:45:25;;;;;;;2.95;2.53;;;;;;;12.96;63.57;96850.69;4918642;28;20255;-82
2023/05/15 03:47:50;;;;;;;2.67;2.42;;;;;;;12.99;63.84;96858.78;4890450;28;20263;-82
2023/05/15 03:50:15;;;;;;;2.83;2.50;;;;;;;12.98;63.58;96857.19;4905581;28;20104;-82
2023/05/15 03:52:41;;;;;;;3.10;2.80;;;;;;;12.99;63.68;96864.00;4901149;28;20390;-82
2023/05/15 03:55:07;;;;;;;3.38;2.58;;;;;;;12.99;63.49;96869.22;4908549;28;20303;-82
2023/05/15 03:57:34;;;;;;;4.07;2.78;;;;;;;12.88;63.81;96858.00;4914372;28;20671;-82
2023/05/15 04:00:02;;;;;;;2.95;2.65;;;;;;;12.90;64.28;96866.38;4921210;28;20267;-82
2023/05/15 04:02:29;;;;;;;3.38;2.70;;;;;;;12.90;64.46;96860.34;4916975;28;20677;-82
2023/05/15 04:04:54;;;;;;;2.72;2.38;;;;;;;12.90;63.97;96865.56;4910070;28;20189;-83
2023/05/15 04:07:20;;;;;;;2.75;2.50;;;;;;;12.88;64.17;96858.00;4912863;28;20168;-82
2023/05/15 04:09:45;;;;;;;3.35;2.58;;;;;;;13.02;63.62;96862.66;4918231;28;20648;-81
2023/05/15 04:12:11;;;;;;;3.53;2.70;;;;;;;12.86;64.26;96857.50;4899793;28;20112;-83
2023/05/15 04:14:36;;;;;;;2.65;2.45;;;;;;;12.92;64.73;96861.66;4923658;28;20236;-82
2023/05/15 04:17:01;;;;;;;2.70;2.45;;;;;;;12.96;64.35;96861.13;4920428;28;20209;-83
2023/05/15 04:19:27;;;;;;;3.30;2.72;;;;;;;12.98;64.25;96865.03;4919256;28;20210;-82
2023/05/15 04:21:52;;;;;;;3.85;3.00;;;;;;;12.93;64.43;96860.59;4947676;28;20337;-82
2023/05/15 04:24:17;;;;;;;2.67;2.42;;;;;;;13.03;64.34;96864.25;4919281;28;20189;-82
2023/05/15 04:26:43;;;;;;;3.50;3.10;;;;;;;13.02;64.82;96865.28;4927239;28;20269;-82
2023/05/15 04:29:08;;;;;;;3.20;3.00;;;;;;;12.99;65.20;96865.81;4902430;28;20210;-82
2023/05/15 04:31:34;;;;;;;3.35;3.05;;;;;;;12.87;65.61;96847.84;4920866;28;20077;-82
2023/05/15 04:33:59;;;;;;;3.20;2.90;;;;;;;13.02;65.25;96865.28;4905831;28;20591;-82
2023/05/15 04:36:25;;;;;;;3.00;2.67;;;;;;;13.16;65.03;96868.09;4923012;28;20222;-81
2023/05/15 04:38:50;;;;;;;3.22;2.85;;;;;;;13.19;65.19;96870.94;4898650;28;20212;-80
2023/05/15 04:41:16;;;;;;;3.67;2.97;;;;;;;13.15;65.16;96875.16;4923181;28;20404;-81
2023/05/15 04:43:42;;;;;;;2.90;2.60;;;;;;;13.23;65.37;96871.19;4925106;28;20280;-81
2023/05/15 04:46:07;;;;;;;3.10;2.80;;;;;;;13.24;65.43;96876.16;4930744;28;20044;-81
2023/05/15 04:48:32;;;;;;;3.50;3.20;;;;;;;13.32;65.14;96872.25;4876933;28;20262;-80
2023/05/15 04:50:57;;;;;;;3.67;2.78;;;;;;;13.33;65.43;96873.03;4907130;28;20262;-81
2023/05/15 04:53:23;;;;;;;4.45;3.10;;;;;;;13.31;65.38;96873.25;4889246;28;20239;-80
2023/05/15 04:55:50;;;;;;;3.53;2.42;;;;;;;13.36;65.62;96864.63;4936933;28;20195;-81
2023/05/15 04:58:16;;;;;;;3.22;2.67;;;;;;;13.40;65.45;96865.66;4906636;28;20213;-80
2023/05/15 05:00:41;;;;;;;3.15;2.67;;;;;;;13.47;64.74;96868.78;4920164;28;20539;-82
2023/05/15 05:03:06;;;;;;;3.22;2.72;;;;;;;13.49;65.03;96866.66;4891156;28;20405;-82
2023/05/15 05:05:32;;;;;;;3.13;2.83;;;;;;;13.63;65.24;96867.63;4918933;28;20684;-82
2023/05/15 05:07:57;;;;;;;3.38;3.05;;;;;;;13.72;64.93;96869.66;4906595;28;20367;-81
2023/05/15 05:10:22;;;;;;;3.08;2.50;;;;;;;13.80;65.16;96871.72;4888890;28;20218;-82
2023/05/15 05:12:48;;;;;;;3.20;2.80;;;;;;;13.85;64.85;96874.28;4888125;28;20285;-82
2023/05/15 05:15:13;;;;;;;3.15;2.85;;;;;;;13.90;64.93;96866.41;4931204;28;20214;-82
2023/05/15 05:17:38;;;;;;;4.15;2.88;;;;;;;13.97;64.56;96872.09;4916221;28;20266;-82
2023/05/15 05:20:07;;;;;;;3.65;3.10;;;;;;;13.98;64.44;96868.44;4905349;28;20230;-82
2023/05/15 05:22:33;;;;;;;2.50;2.30;;;;;;;14.01;63.79;96877.56;4920530;28;20237;-81
2023/05/15 05:24:58;;;;;;;2.67;2.47;;;;;;;14.05;64.30;96881.19;4918793;28;20324;-82
2023/05/15 05:27:23;;;;;;;2.70;2.50;;;;;;;14.13;64.33;96874.63;4883333;28;20266;-83
2023/05/15 05:29:49;;;;;;;2.90;2.60;;;;;;;14.18;64.81;96867.50;4931973;28;20225;-81
2023/05/15 05:32:14;;;;;;;2.88;2.53;;;;;;;14.35;65.13;96871.53;4912570;28;20310;-82
2023/05/15 05:34:40;;;;;;;2.97;2.67;;;;;;;14.50;65.01;96868.00;4907211;28;20100;-81
2023/05/15 05:37:05;;;;;;;3.22;2.92;;;;;;;14.66;64.76;96866.81;4879360;28;20192;-82
2023/05/15 05:39:30;;;;;;;3.17;2.88;;;;;;;14.81;65.00;96867.72;4907582;28;20564;-81
2023/05/15 05:41:56;;;;;;;2.90;2.70;;;;;;;14.97;64.92;96874.34;4885668;28;20361;-83
2023/05/15 05:44:21;;;;;;;3.38;2.95;;;;;;;15.09;64.75;96874.72;4888395;28;20238;-82
2023/05/15 05:46:46;;;;;;;2.92;2.72;;;;;;;15.15;63.85;96868.38;4882518;28;20190;-83
2023/05/15 05:49:12;;;;;;;3.55;2.90;;;;;;;15.24;64.39;96875.63;4915710;28;20211;-81
2023/05/15 05:51:37;;;;;;;5.50;3.47;;;;;;;15.34;63.25;96873.66;4933062;28;20599;-81
2023/05/15 05:54:03;;;;;;;3.70;3.40;;;;;;;15.38;63.12;96876.47;4885031;28;20201;-81
2023/05/15 05:56:28;;;;;;;3.58;3.28;;;;;;;15.45;63.31;96873.50;4884925;28;20199;-81
2023/05/15 05:58:55;;;;;;;3.85;3.45;;;;;;;15.59;62.81;96870.97;4914313;28;20217;-81
2023/05/15 06:01:21;;;;;;;4.47;3.70;;;;;;;15.74;62.12;96870.75;4912092;28;20329;-82
2023/05/15 06:03:46;;;;;;;3.92;3.63;;;;;;;15.96;61.34;96864.16;4876882;28;20261;-81
2023/05/15 06:06:11;;;;;;;3.67;3.30;;;;;;;16.21;60.56;96863.75;4885727;28;20701;-82
2023/05/15 06:08:37;;;;;;;4.30;3.25;;;;;;;16.25;59.21;96869.22;4882528;28;20275;-82
2023/05/15 06:11:02;;;;;;;4.07;3.67;;;;;;;16.55;58.12;96859.22;4909194;28;20557;-81
2023/05/15 06:13:28;;;;;;;4.35;3.50;;;;;;;16.80;57.70;96864.03;4917132;28;20281;-81
2023/05/15 06:15:53;;;;;;;5.65;3.75;;;;;;;16.94;56.35;96869.31;4926236;28;20657;-81
2023/05/15 06:18:19;;;;;;;3.33;3.03;;;;;;;17.10;56.18;96874.28;4922384;28;20574;-80
2023/05/15 06:20:45;;;;;;;4.72;3.35;;;;;;;17.38;55.42;96870.53;4930479;28;20152;-81
2023/05/15 06:23:11;;;;;;;3.90;3.53;;;;;;;17.60;54.66;96867.16;4880592;28;20649;-81
2023/05/15 06:25:36;;;;;;;3.42;3.15;;;;;;;17.73;54.39;96865.56;4918758;28;20284;-81
2023/05/15 06:28:01;;;;;;;4.03;3.60;;;;;;;17.94;53.82;96870.38;4920103;28;20249;-83
2023/05/15 06:30:27;;;;;;;3.90;3.60;;;;;;;18.01;53.87;96867.34;4953969;28;20235;-81
2023/05/15 06:32:52;;;;;;;4.72;4.10;;;;;;;18.20;53.25;96872.41;4919853;28;20276;-81
2023/05/15 06:35:17;;;;;;;4.43;3.88;;;;;;;18.26;52.79;96869.34;4905309;28;20171;-82
2023/05/15 06:37:43;;;;;;;4.05;3.65;;;;;;;18.45;52.68;96866.50;4936105;28;20198;-81
2023/05/15 06:40:09;;;;;;;4.47;3.90;;;;;;;18.48;52.00;96868.53;4916348;28;20257;-81
2023/05/15 06:42:34;;;;;;;3.63;3.33;;;;;;;18.78;52.06;96879.41;4905887;28;20164;-81
2023/05/15 06:45:00;;;;;;;3.58;3.28;;;;;;;19.00;50.69;96880.41;4921629;28;20600;-81
2023/05/15 06:47:25;;;;;;;3.70;3.40;;;;;;;18.88;50.74;96881.00;4885504;28;20141;-83
2023/05/15 06:49:52;;;;;;;3.63;3.33;;;;;;;18.74;51.22;96875.78;4872807;28;20282;-82
2023/05/15 06:52:19;;;;;;;3.53;3.22;;;;;;;19.10;50.96;96877.50;4932088;28;20666;-81
2023/05/15 06:54:44;;;;;;;4.70;4.10;;;;;;;19.21;49.65;96878.78;4879245;28;20117;-82
2023/05/15 06:57:10;;;;;;;3.88;3.58;;;;;;;19.40;50.17;96877.72;4897601;28;20647;-80
2023/05/15 06:59:35;;;;;;;4.30;3.95;;;;;;;19.38;49.36;96871.97;4916029;28;20172;-81
2023/05/15 07:02:01;;;;;;;4.00;3.70;;;;;;;19.58;50.01;96868.72;4883426;28;20706;-81
2023/05/15 07:04:28;;;;;;;4.68;3.75;;;;;;;19.63;49.35;96868.56;4944666;28;20258;-81
2023/05/15 07:06:53;;;;;;;4.30;3.70;;;;;;;19.61;48.85;96872.63;4908464;28;20643;-81
2023/05/15 07:09:18;;;;;;;4.47;4.07;;;;;;;19.72;49.50;96875.72;4898286;28;20193;-81
2023/05/15 07:11:44;;;;;;;4.20;3.80;;;;;;;19.76;49.77;96879.34;4894177;28;20209;-81
2023/05/15 07:14:09;;;;;;;4.70;4.30;;;;;;;19.63;48.53;96876.47;4913874;28;20303;-81
2023/05/15 07:16:35;;;;;;;4.45;4.07;;;;;;;19.90;47.68;96879.94;4875729;28;20190;-81
2023/05/15 07:19:00;;;;;;;4.80;4.40;;;;;;;20.12;47.82;96878.22;4904884;28;20246;-81
2023/05/15 07:21:25;;;;;;;4.05;3.70;;;;;;;20.15;47.22;96872.28;4915124;28;20205;-81
2023/05/15 07:23:51;;;;;;;4.75;4.35;;;;;;;20.19;47.77;96873.22;4926396;28;20788;-80
2023/05/15 07:26:16;;;;;;;4.85;4.10;;;;;;;20.33;47.93;96868.53;4913677;28;20171;-82
2023/05/15 07:28:41;;;;;;;4.45;4.05;;;;;;;20.25;46.91;96864.03;4897450;28;20232;-82
2023/05/15 07:31:07;;;;;;;4.75;4.30;;;;;;;20.24;46.98;96867.78;4894454;28;20214;-82
2023/05/15 07:33:32;;;;;;;4.00;3.70;;;;;;;20.36;46.73;96867.91;4908982;28;20314;-80
2023/05/15 07:35:58;;;;;;;4.93;4.20;;;;;;;20.53;46.16;96861.00;4883310;28;20207;-82
2023/05/15 07:38:23;;;;;;;4.13;3.70;;;;;;;20.70;46.43;96876.84;4921981;28;20252;-81
2023/05/15 07:40:48;;;;;;;4.35;3.50;;;;;;;20.94;46.15;96862.28;4884762;28;20210;-80
2023/05/15 07:43:14;;;;;;;4.28;3.97;;;;;;;20.61;45.05;96854.13;4925966;28;20265;-81
2023/05/15 07:45:39;;;;;;;4.28;3.95;;;;;;;20.74;45.21;96856.59;4897401;28;20292;-82
2023/05/15 07:48:15;;;;;;;4.40;4.00;;;;;;;20.62;44.84;96864.41;4868635;28;20625;-81
2023/05/15 07:50:41;;;;;;;4.05;3.75;;;;;;;20.94;44.06;96859.63;4924932;28;20257;-81
2023/05/15 07:53:06;;;;;;;4.50;4.10;;;;;;;20.91;44.33;96860.25;4927602;28;20344;-81
2023/05/15 07:55:32;;;;;;;5.38;3.85;;;;;;;21.23;44.53;96858.84;4924986;28;20218;-81
2023/05/15 07:57:57;;;;;;;4.03;3.35;;;;;;;21.47;44.48;96866.19;4925526;28;20245;-82
2023/05/15 08:00:23;;;;;;;3.60;3.30;;;;;;;21.67;43.85;96854.00;4935934;28;20230;-80
2023/05/15 08:02:48;;;;;;;4.07;3.78;;;;;;;22.07;43.17;96865.97;4889842;28;20117;-80
2023/05/15 08:05:14;;;;;;;3.50;3.22;;;;;;;22.40;42.28;96852.72;4899190;28;20640;-82
2023/05/15 08:07:39;;;;;;;4.32;3.53;;;;;;;22.33;41.94;96857.00;4933516;28;20095;-81
2023/05/15 08:10:06;;;;;;;4.80;4.40;;;;;;;22.05;43.50;96861.03;4914302;28;20049;-81
2023/05/15 08:12:31;;;;;;;3.58;3.28;;;;;;;22.40;41.79;96857.28;4919766;28;20045;-80
2023/05/15 08:14:57;;;;;;;3.85;3.58;;;;;;;22.68;40.87;96857.41;4876310;28;20636;-81
2023/05/15 08:17:23;;;;;;;3.88;3.58;;;;;;;22.79;40.44;96860.38;4909769;28;20041;-81
2023/05/15 08:19:49;;;;;;;4.13;3.83;;;;;;;22.50;41.85;96853.41;4954230;28;20114;-80
2023/05/15 08:22:14;;;;;;;3.60;3.33;;;;;;;22.74;42.50;96866.72;4936660;28;20042;-82
2023/05/15 08:24:40;;;;;;;3.80;3.38;;;;;;;22.72;42.43;96853.00;4935932;28;20026;-81
2023/05/15 08:27:06;;;;;;;3.33;3.10;;;;;;;22.53;41.58;96869.44;4910602;28;20030;-81
2023/05/15 08:29:32;;;;;;;4.18;3.60;;;;;;;22.41;40.73;96858.81;4904831;28;20155;-80
2023/05/15 08:31:58;;;;;;;3.60;3.25;;;;;;;22.23;42.12;96868.81;4896562;28;20113;-82
2023/05/15 08:34:24;;;;;;;3.92;3.63;;;;;;;22.25;41.66;96854.09;4945120;28;20408;-81
2023/05/15 08:36:49;;;;;;;4.25;3.95;;;;;;;22.18;41.89;96861.81;4905217;28;20087;-83
2023/05/15 08:39:15;;;;;;;3.90;3.60;;;;;;;21.94;42.65;96864.41;4886426;28;20034;-80
2023/05/15 08:41:47;;;;;;;3.90;3.33;;;;;;;21.80;42.25;96859.38;4891784;28;20692;-82
2023/05/15 08:44:13;;;;;;;3.58;3.30;;;;;;;22.00;40.95;96863.09;4876776;28;20038;-82
2023/05/15 08:46:38;;;;;;;3.50;3.30;;;;;;;22.00;41.01;96860.44;4928306;28;20464;-80
2023/05/15 08:49:11;;;;;;;3.72;3.42;;;;;;;22.11;39.16;96856.28;4882584;28;20241;-81
2023/05/15 08:51:37;;;;;;;3.20;2.80;;;;;;;21.97;40.37;96861.88;4900727;28;20057;-82
2023/05/15 08:54:03;;;;;;;3.60;3.30;;;;;;;21.84;41.96;96858.41;4941050;28;20349;-81
2023/05/15 08:56:28;;;;;;;3.75;3.45;;;;;;;21.78;40.98;96854.41;4926082;28;20205;-82
2023/05/15 08:58:54;;;;;;;3.15;2.95;;;;;;;21.75;40.79;96849.75;4867525;28;20632;-80
2023/05/15 09:01:20;;;;;;;3.53;3.25;;;;;;;21.87;40.53;96856.97;4928854;28;20689;-80
2023/05/15 09:03:45;;;;;;;3.88;3.58;;;;;;;21.86;41.00;96848.22;4912981;28;20192;-82
2023/05/15 09:06:11;;;;;;;3.78;3.20;;;;;;;22.08;40.28;96851.63;4897053;28;20862;-81
2023/05/15 09:08:37;;;;;;;3.83;3.53;;;;;;;21.88;40.57;96848.72;4917402;28;20290;-82
2023/05/15 09:11:03;;;;;;;3.63;3.33;;;;;;;21.77;42.59;96847.53;4921215;28;20267;-82
2023/05/15 09:13:30;;;;;;;5.70;4.28;;;;;;;21.50;43.23;96849.63;4932084;28;20167;-80
2023/05/15 09:15:55;;;;;;;3.83;3.53;;;;;;;22.38;40.94;96838.22;4912400;28;20115;-80
2023/05/15 09:18:21;;;;;;;4.05;3.75;;;;;;;22.71;41.73;96845.38;4881270;28;20648;-80
2023/05/15 09:20:46;;;;;;;4.18;3.75;;;;;;;22.48;40.60;96832.50;4876505;28;20284;-80
2023/05/15 09:23:23;;;;;;;4.97;4.00;;;;;;;22.60;41.06;96835.19;4925952;28;20270;-80
2023/05/15 09:25:52;;;;;;;4.45;4.05;;;;;;;22.59;41.10;96844.25;4889274;28;20288;-81
2023/05/15 09:28:33;;;;;;;4.28;3.92;;;;;;;23.03;41.36;96837.59;4897230;28;20364;-80
2023/05/15 09:31:03;;;;;;;4.72;4.10;;;;;;;23.22;40.15;96832.53;4934377;28;20175;-82
2023/05/15 09:33:36;;;;;;;3.90;3.50;;;;;;;23.14;39.71;96833.41;4935122;28;20155;-84
2023/05/15 09:36:03;;;;;;;4.00;3.70;;;;;;;23.34;38.71;96837.81;4926057;28;20206;-82
2023/05/15 09:38:31;;;;;;;3.53;3.22;;;;;;;23.83;37.17;96831.56;4900262;28;20199;-82
2023/05/15 09:41:07;;;;;;;4.03;3.60;;;;;;;24.15;37.69;96834.31;4880630;28;20804;-81
2023/05/15 09:43:36;;;;;;;3.75;3.45;;;;;;;24.22;36.42;96818.50;4926903;28;20290;-81
2023/05/15 09:46:02;;;;;;;3.22;2.92;;;;;;;23.52;36.20;96813.63;4927954;28;20294;-80
2023/05/15 09:48:28;;;;;;;3.42;2.88;;;;;;;23.99;36.74;96817.53;4891920;28;20788;-81
2023/05/15 09:50:54;;;;;;;3.40;3.20;;;;;;;24.45;36.87;96821.38;4892399;28;20657;-80
2023/05/15 09:53:20;;;;;;;3.63;3.15;;;;;;;24.38;35.89;96815.84;4937144;28;20272;-81
2023/05/15 09:55:46;;;;;;;3.58;2.70;;;;;;;24.90;34.47;96814.06;4908173;28;20286;-80
2023/05/15 09:58:14;;;;;;;2.47;2.30;;;;;;;24.36;32.16;96812.75;4882824;28;20755;-81
2023/05/15 10:00:40;;;;;;;2.60;2.40;;;;;;;24.38;33.07;96810.53;4878154;28;20618;-81
2023/05/15 10:03:07;;;;;;;3.20;2.88;;;;;;;25.09;33.88;96810.66;4876967;28;20295;-80
2023/05/15 10:05:33;;;;;;;2.88;2.67;;;;;;;25.45;30.37;96810.63;4907487;28;20270;-82
2023/05/15 10:07:58;;;;;;;4.50;4.07;;;;;;;25.50;34.06;96813.81;4927497;28;20720;-81
2023/05/15 10:10:25;;;;;;;3.50;3.20;;;;;;;24.57;35.15;96817.09;4907208;28;20183;-80
2023/05/15 10:12:52;;;;;;;3.30;3.10;;;;;;;24.81;32.65;96818.78;4925675;28;20633;-81
2023/05/15 10:15:18;;;;;;;3.38;3.08;;;;;;;24.66;32.35;96815.03;4907942;28;20199;-81
2023/05/15 10:17:46;;;;;;;3.03;2.72;;;;;;;24.93;31.32;96808.00;4906494;28;20217;-80
2023/05/15 10:20:12;;;;;;;3.00;2.80;;;;;;;25.08;32.33;96800.34;4885026;28;20205;-81
2023/05/15 10:22:40;;;;;;;3.55;3.28;;;;;;;25.15;33.04;96795.91;4895249;28;20594;-80
2023/05/15 10:25:36;;;;;;;3.40;3.20;;;;;;;25.37;32.69;96785.75;4898835;28;20659;-80
2023/05/15 10:28:02;;;;;;;4.03;2.70;;;;;;;25.60;32.04;96783.91;4896560;28;20236;-80
2023/05/15 10:30:28;;;;;;;3.42;3.13;;;;;;;25.87;29.32;96793.91;4877744;28;20254;-81
2023/05/15 10:32:54;;;;;;;3.10;2.90;;;;;;;26.08;28.82;96783.66;4884020;28;20325;-80
2023/05/15 10:35:20;;;;;;;3.30;3.10;;;;;;;26.03;29.66;96780.47;4909486;28;20194;-83
2023/05/15 10:37:47;;;;;;;4.53;3.53;;;;;;;25.79;32.25;96782.34;4896019;28;20520;-82
2023/05/15 10:40:14;;;;;;;4.10;3.75;;;;;;;25.49;32.34;96790.16;4911449;28;20265;-80
2023/05/15 10:42:45;;;;;;;4.53;3.80;;;;;;;25.57;31.68;96776.63;4904015;28;20276;-79
2023/05/15 10:45:12;;;;;;;4.00;3.60;;;;;;;25.80;32.83;96773.22;4897036;28;20284;-81
2023/05/15 10:47:38;;;;;;;4.07;3.78;;;;;;;25.79;32.24;96766.34;4899180;28;20198;-82
2023/05/15 10:50:05;;;;;;;4.50;4.10;;;;;;;26.14;31.56;96768.88;4928978;28;20296;-80
2023/05/15 10:52:35;;;;;;;4.22;3.92;;;;;;;25.96;30.01;96768.59;4906882;28;20625;-80
2023/05/15 10:55:02;;;;;;;5.10;4.70;;;;;;;25.27;32.72;96764.97;4929475;28;20247;-81
2023/05/15 10:57:28;;;;;;;5.22;4.82;;;;;;;25.44;32.50;96755.78;4890057;28;20188;-80
2023/05/15 10:59:54;;;;;;;5.22;4.72;;;;;;;25.57;32.10;96757.94;4906263;28;20192;-81
2023/05/15 11:02:22;;;;;;;5.15;4.70;;;;;;;25.18;31.64;96754.50;4900003;28;20679;-80
2023/05/15 11:04:52;;;;;;;4.40;4.00;;;;;;;25.70;33.71;96753.22;4927978;28;20440;-80
2023/05/15 11:07:17;;;;;;;4.65;4.20;;;;;;;25.49;32.02;96752.84;4930723;28;20193;-79
2023/05/15 11:09:43;;;;;;;5.25;3.90;;;;;;;26.06;28.93;96742.44;4907097;28;20624;-80
2023/05/15 11:12:10;;;;;;;5.20;4.63;;;;;;;26.13;29.73;96746.00;4916761;28;20163;-80
2023/05/15 11:15:03;;;;;;;4.13;3.83;;;;;;;26.29;30.03;96747.75;4895638;28;20172;-80
2023/05/15 11:17:32;;;;;;;5.22;4.72;;;;;;;25.95;30.40;96740.34;4936418;28;20250;-81
2023/05/15 11:19:58;;;;;;;5.10;4.70;;;;;;;25.24;32.05;96740.56;4887858;28;20296;-79
2023/05/15 11:22:41;;;;;;;5.20;4.70;;;;;;;24.76;33.75;96745.28;4912464;28;20635;-80
2023/05/15 11:25:10;;;;;;;5.30;4.85;;;;;;;24.31;33.45;96743.84;4900520;28;20171;-81
2023/05/15 11:27:36;;;;;;;5.43;5.03;;;;;;;24.47;34.81;96736.63;4933327;28;20144;-80
2023/05/15 11:30:02;;;;;;;4.90;4.43;;;;;;;24.49;32.87;96736.28;4899847;28;20214;-81
2023/05/15 11:32:50;;;;;;;5.63;5.13;;;;;;;24.24;33.60;96735.69;4895613;28;20617;-80